createdAt,value
2017-12-23T00:01:54.260Z,80.80
2017-12-23T00:04:21.981Z,80.90
2017-12-23T00:06:49.417Z,81.00
2017-12-23T00:09:17.242Z,81.00
2017-12-23T00:11:44.701Z,80.90
2017-12-23T00:14:12.813Z,81.00
2017-12-23T00:16:40.471Z,80.90
2017-12-23T00:19:08.016Z,80.90
2017-12-23T00:21:35.489Z,80.90
2017-12-23T00:24:04.468Z,81.50
2017-12-23T00:26:32.228Z,80.80
2017-12-23T00:29:00.284Z,81.50
2017-12-23T00:31:27.956Z,81.20
2017-12-23T00:33:55.920Z,81.50
2017-12-23T00:36:24.242Z,82.50
2017-12-23T00:38:51.851Z,81.80
2017-12-23T00:41:19.325Z,81.80
2017-12-23T00:43:46.938Z,81.90
2017-12-23T00:46:14.741Z,82.00
2017-12-23T00:48:43.756Z,82.10
2017-12-23T00:51:11.202Z,82.20
2017-12-23T00:53:38.706Z,82.50
2017-12-23T00:56:06.155Z,82.70
2017-12-23T00:58:33.676Z,83.10
2017-12-23T01:01:01.133Z,83.20
2017-12-23T01:03:28.830Z,83.00
2017-12-23T01:05:57.047Z,83.50
2017-12-23T01:08:24.612Z,82.90
2017-12-23T01:10:52.098Z,83.10
2017-12-23T01:13:20.430Z,83.30
2017-12-23T01:15:48.129Z,83.40
2017-12-23T01:18:15.579Z,83.30
2017-12-23T01:20:43.215Z,83.20
2017-12-23T01:23:11.398Z,83.40
2017-12-23T01:25:39.193Z,83.40
2017-12-23T01:28:06.634Z,83.70
2017-12-23T01:30:34.292Z,84.00
2017-12-23T01:33:01.741Z,83.80
2017-12-23T01:35:29.737Z,84.00
2017-12-23T01:37:57.202Z,84.30
2017-12-23T01:40:24.663Z,84.70
2017-12-23T01:42:52.124Z,85.30
2017-12-23T01:45:20.419Z,86.70
2017-12-23T01:47:49.088Z,87.00
2017-12-23T01:50:16.603Z,86.40
2017-12-23T01:52:44.294Z,86.80
2017-12-23T01:55:12.529Z,87.80
2017-12-23T01:57:40.364Z,87.20
2017-12-23T02:00:08.609Z,88.00
2017-12-23T02:02:36.061Z,87.40
2017-12-23T02:05:03.684Z,87.20
2017-12-23T02:07:31.113Z,86.80
2017-12-23T02:09:58.608Z,86.60
2017-12-23T02:12:26.059Z,86.70
2017-12-23T02:14:53.989Z,87.00
2017-12-23T02:17:22.196Z,87.50
2017-12-23T02:19:49.725Z,87.10
2017-12-23T02:22:18.575Z,87.80
2017-12-23T02:24:46.657Z,87.00
2017-12-23T02:27:14.105Z,87.20
2017-12-23T02:29:41.964Z,87.10
2017-12-23T02:32:09.437Z,87.40
2017-12-23T02:34:37.156Z,87.40
2017-12-23T02:37:05.295Z,87.20
2017-12-23T02:39:33.549Z,88.00
2017-12-23T02:42:01.059Z,87.50
2017-12-23T02:44:28.497Z,87.50
2017-12-23T02:46:56.178Z,87.40
2017-12-23T02:49:24.182Z,87.20
2017-12-23T02:51:51.663Z,87.30
2017-12-23T02:54:19.160Z,87.40
2017-12-23T02:56:46.616Z,88.10
2017-12-23T02:59:14.156Z,87.30
2017-12-23T03:01:41.596Z,87.30
2017-12-23T03:04:09.800Z,87.70
2017-12-23T03:06:37.676Z,87.00
2017-12-23T03:09:05.121Z,87.00
2017-12-23T03:11:33.096Z,87.40
2017-12-23T03:14:01.098Z,87.20
2017-12-23T03:16:28.968Z,87.20
2017-12-23T03:18:56.417Z,87.30
2017-12-23T03:21:23.878Z,87.30
2017-12-23T03:23:51.643Z,87.40
2017-12-23T03:26:19.471Z,87.20
2017-12-23T03:28:47.363Z,87.40
2017-12-23T03:31:15.615Z,87.30
2017-12-23T03:33:43.069Z,87.40
2017-12-23T03:36:10.578Z,87.30
2017-12-23T03:38:38.813Z,88.80
2017-12-23T03:41:06.504Z,87.90
2017-12-23T03:43:34.937Z,89.10
2017-12-23T03:46:03.823Z,88.60
2017-12-23T03:48:32.089Z,88.70
2017-12-23T03:50:59.738Z,88.60
2017-12-23T03:53:27.648Z,88.70
2017-12-23T03:55:55.514Z,88.70
2017-12-23T03:58:23.902Z,88.60
2017-12-23T04:00:52.554Z,89.10
2017-12-23T04:03:20.766Z,89.60
2017-12-23T04:05:48.363Z,88.20
2017-12-23T04:08:15.871Z,88.40
2017-12-23T04:10:43.300Z,88.60
2017-12-23T04:13:11.539Z,89.20
2017-12-23T04:15:40.332Z,89.30
2017-12-23T04:18:07.789Z,88.60
2017-12-23T04:20:35.248Z,88.80
2017-12-23T04:23:02.734Z,88.70
2017-12-23T04:25:31.392Z,89.70
2017-12-23T04:27:59.140Z,88.90
2017-12-23T04:30:27.121Z,89.00
2017-12-23T04:32:54.560Z,88.80
2017-12-23T04:35:22.056Z,89.00
2017-12-23T04:37:50.272Z,89.80
2017-12-23T04:40:17.746Z,89.10
2017-12-23T04:42:45.252Z,89.20
2017-12-23T04:45:13.662Z,90.00
2017-12-23T04:47:41.408Z,89.40
2017-12-23T04:50:09.329Z,89.90
2017-12-23T04:52:36.773Z,89.40
2017-12-23T04:55:04.253Z,89.20
2017-12-23T04:57:31.692Z,89.10
2017-12-23T05:00:00.753Z,89.80
2017-12-23T05:02:28.219Z,89.20
2017-12-23T05:04:55.892Z,89.00
2017-12-23T05:07:23.374Z,89.40
2017-12-23T05:09:50.846Z,89.40
2017-12-23T05:12:19.259Z,90.00
2017-12-23T05:14:47.075Z,89.40
2017-12-23T05:17:14.549Z,89.50
2017-12-23T05:19:42.762Z,90.00
2017-12-23T05:22:10.246Z,89.40
2017-12-23T05:24:38.179Z,89.50
2017-12-23T05:27:05.919Z,89.30
2017-12-23T05:29:33.843Z,89.30
2017-12-23T05:32:01.368Z,89.30
2017-12-23T05:34:29.431Z,89.30
2017-12-23T05:36:57.132Z,89.60
2017-12-23T05:39:24.600Z,89.90
2017-12-23T05:41:52.054Z,90.00
2017-12-23T05:44:19.587Z,90.10
2017-12-23T05:46:47.027Z,89.90
2017-12-23T05:49:14.834Z,90.00
2017-12-23T05:51:42.345Z,89.80
2017-12-23T05:54:09.906Z,89.80
2017-12-23T05:56:37.362Z,89.40
2017-12-23T05:59:04.962Z,89.10
2017-12-23T06:01:32.442Z,89.20
2017-12-23T06:04:00.755Z,90.00
2017-12-23T06:06:28.313Z,89.40
2017-12-23T06:08:55.767Z,89.80
2017-12-23T06:11:24.284Z,89.50
2017-12-23T06:13:52.420Z,89.00
2017-12-23T06:16:20.014Z,88.80
2017-12-23T06:18:47.453Z,88.40
2017-12-23T06:21:14.901Z,88.50
2017-12-23T06:23:42.895Z,88.40
2017-12-23T06:26:11.576Z,89.40
2017-12-23T06:28:39.049Z,88.00
2017-12-23T06:31:06.912Z,88.20
2017-12-23T06:33:34.397Z,88.30
2017-12-23T06:36:02.604Z,89.10
2017-12-23T06:38:30.165Z,88.40
2017-12-23T06:40:57.615Z,88.80
2017-12-23T06:43:25.415Z,88.50
2017-12-23T06:45:52.856Z,88.80
2017-12-23T06:48:20.550Z,88.20
2017-12-23T06:50:48.018Z,88.20
2017-12-23T06:53:16.229Z,88.80
2017-12-23T06:55:43.694Z,88.00
2017-12-23T06:58:11.145Z,88.80
2017-12-23T07:00:38.622Z,88.20
2017-12-23T07:03:06.162Z,88.10
2017-12-23T07:05:33.647Z,87.70
2017-12-23T07:08:01.281Z,88.00
2017-12-23T07:10:28.726Z,87.90
2017-12-23T07:12:56.625Z,88.30
2017-12-23T07:15:24.520Z,88.00
2017-12-23T07:17:52.220Z,88.00
2017-12-23T07:20:19.656Z,88.00
2017-12-23T07:22:47.602Z,88.10
2017-12-23T07:25:15.650Z,88.30
2017-12-23T07:27:43.526Z,88.50
2017-12-23T07:30:11.489Z,88.60
2017-12-23T07:32:38.942Z,88.60
2017-12-23T07:35:06.472Z,88.30
2017-12-23T07:37:33.926Z,88.80
2017-12-23T07:40:01.367Z,89.50
2017-12-23T07:42:29.730Z,89.00
2017-12-23T07:44:57.943Z,89.40
2017-12-23T07:47:25.845Z,88.60
2017-12-23T07:49:53.278Z,88.90
2017-12-23T07:52:20.752Z,89.00
2017-12-23T07:54:48.198Z,89.20
2017-12-23T07:57:15.719Z,89.60
2017-12-23T07:59:43.272Z,89.90
2017-12-23T08:02:11.361Z,90.00
2017-12-23T08:04:38.813Z,89.50
2017-12-23T08:07:06.270Z,89.70
2017-12-23T08:09:34.204Z,89.90
2017-12-23T08:12:02.417Z,90.30
2017-12-23T08:14:30.340Z,90.10
2017-12-23T08:16:58.569Z,90.50
2017-12-23T08:19:26.028Z,89.70
2017-12-23T08:21:53.615Z,89.50
2017-12-23T08:24:21.715Z,89.50
2017-12-23T08:26:50.397Z,90.10
2017-12-23T08:29:19.006Z,90.20
2017-12-23T08:31:46.471Z,89.90
2017-12-23T08:34:13.934Z,89.90
2017-12-23T08:36:41.487Z,90.00
2017-12-23T08:39:08.954Z,89.90
2017-12-23T08:41:36.466Z,90.00
2017-12-23T08:44:04.115Z,90.00
2017-12-23T08:46:31.840Z,90.00
2017-12-23T08:49:00.058Z,90.10
2017-12-23T08:51:27.519Z,90.10
2017-12-23T08:53:55.947Z,90.30
2017-12-23T08:56:23.417Z,90.00
2017-12-23T08:58:50.910Z,90.00
2017-12-23T09:01:18.348Z,89.90
2017-12-23T09:03:47.337Z,90.10
2017-12-23T09:06:14.956Z,89.60
2017-12-23T09:08:43.028Z,89.90
2017-12-23T09:11:10.491Z,89.70
2017-12-23T09:13:38.044Z,89.50
2017-12-23T09:16:06.652Z,89.90
2017-12-23T09:18:34.118Z,89.30
2017-12-23T09:21:01.561Z,89.10
2017-12-23T09:23:29.165Z,88.60
2017-12-23T09:25:57.098Z,88.40
2017-12-23T09:28:24.979Z,88.30
2017-12-23T09:30:52.947Z,88.50
2017-12-23T09:33:21.168Z,88.50
2017-12-23T09:35:48.741Z,87.90
2017-12-23T09:38:16.543Z,87.90
2017-12-23T09:40:44.009Z,87.50
2017-12-23T09:43:11.454Z,86.80
2017-12-23T09:45:38.922Z,87.70
2017-12-23T09:48:06.773Z,86.70
2017-12-23T09:50:34.243Z,87.10
2017-12-23T09:53:01.743Z,87.30
2017-12-23T09:55:29.719Z,86.20
2017-12-23T09:57:57.351Z,86.10
2017-12-23T10:00:25.658Z,86.80
2017-12-23T10:02:54.010Z,86.40
2017-12-23T10:05:21.465Z,86.40
2017-12-23T10:07:49.825Z,85.80
2017-12-23T10:10:17.277Z,85.20
2017-12-23T10:12:44.792Z,86.10
2017-12-23T10:15:12.797Z,85.60
2017-12-23T10:17:40.309Z,85.20
2017-12-23T10:20:07.771Z,85.00
2017-12-23T10:22:35.324Z,85.10
2017-12-23T10:25:03.807Z,85.10
2017-12-23T10:27:31.670Z,85.00
2017-12-23T10:29:59.438Z,84.70
2017-12-23T10:32:27.203Z,84.30
2017-12-23T10:34:54.755Z,84.30
2017-12-23T10:37:22.196Z,84.40
2017-12-23T10:39:50.610Z,84.60
2017-12-23T10:42:18.556Z,84.20
2017-12-23T10:44:46.180Z,84.20
2017-12-23T10:47:15.041Z,85.20
2017-12-23T10:49:42.669Z,84.50
2017-12-23T10:52:10.106Z,84.60
2017-12-23T10:54:37.682Z,84.80
2017-12-23T10:57:05.129Z,84.60
2017-12-23T10:59:32.832Z,85.60
2017-12-23T11:02:00.871Z,85.10
2017-12-23T11:04:28.300Z,84.70
2017-12-23T11:06:55.843Z,84.70
2017-12-23T11:09:23.286Z,84.70
2017-12-23T11:11:50.808Z,84.60
2017-12-23T11:14:18.614Z,84.40
2017-12-23T11:16:46.059Z,84.80
2017-12-23T11:19:13.538Z,84.60
2017-12-23T11:21:41.792Z,85.00
2017-12-23T11:24:09.363Z,84.30
2017-12-23T11:26:37.643Z,84.40
2017-12-23T11:29:05.702Z,84.90
2017-12-23T11:31:33.461Z,84.40
2017-12-23T11:34:01.286Z,83.90
2017-12-23T11:36:28.874Z,83.90
2017-12-23T11:38:57.098Z,84.00
2017-12-23T11:41:25.539Z,85.10
2017-12-23T11:43:53.065Z,84.50
2017-12-23T11:46:20.525Z,84.30
2017-12-23T11:48:48.618Z,84.30
2017-12-23T11:51:16.076Z,84.70
2017-12-23T11:53:43.570Z,84.40
2017-12-23T11:56:11.788Z,84.80
2017-12-23T11:58:39.252Z,84.20
2017-12-23T12:01:06.830Z,84.20
2017-12-23T12:03:34.669Z,84.50
2017-12-23T12:06:02.120Z,84.10
2017-12-23T12:08:29.711Z,84.20
2017-12-23T12:10:57.175Z,84.10
2017-12-23T12:13:24.660Z,84.30
2017-12-23T12:15:53.368Z,85.20
2017-12-23T12:18:20.804Z,84.70
2017-12-23T12:20:48.692Z,84.90
2017-12-23T12:23:16.101Z,84.60
2017-12-23T12:25:44.830Z,85.60
2017-12-23T12:28:12.843Z,84.30
2017-12-23T12:30:40.818Z,84.20
2017-12-23T12:33:08.320Z,84.20
2017-12-23T12:35:35.944Z,84.00
2017-12-23T12:38:04.326Z,84.80
2017-12-23T12:40:32.568Z,85.20
2017-12-23T12:43:00.026Z,84.20
2017-12-23T12:45:27.624Z,84.70
2017-12-23T12:47:56.410Z,85.10
2017-12-23T12:50:25.069Z,85.40
2017-12-23T12:52:52.587Z,84.80
2017-12-23T12:55:20.198Z,84.70
2017-12-23T12:57:47.600Z,84.50
2017-12-23T13:00:15.063Z,84.40
2017-12-23T13:02:42.614Z,84.70
2017-12-23T13:05:10.121Z,84.30
2017-12-23T13:07:37.992Z,84.70
2017-12-23T13:10:06.248Z,85.00
2017-12-23T13:12:33.700Z,84.40
2017-12-23T13:15:01.658Z,84.50
2017-12-23T13:17:29.092Z,84.30
2017-12-23T13:19:56.579Z,84.60
2017-12-23T13:22:24.025Z,84.60
2017-12-23T13:24:52.093Z,84.90
2017-12-23T13:27:19.792Z,85.00
2017-12-23T13:29:47.610Z,84.90
2017-12-23T13:32:15.074Z,84.70
2017-12-23T13:34:42.791Z,84.40
2017-12-23T13:37:11.166Z,85.20
2017-12-23T13:39:39.257Z,84.60
2017-12-23T13:42:07.552Z,85.00
2017-12-23T13:44:34.997Z,84.30
2017-12-23T13:47:03.117Z,84.00
2017-12-23T13:49:30.594Z,84.40
2017-12-23T13:51:58.073Z,84.30
2017-12-23T13:54:26.298Z,85.00
2017-12-23T13:56:53.741Z,84.40
2017-12-23T13:59:21.287Z,84.60
2017-12-23T14:01:48.786Z,84.50
2017-12-23T14:04:16.342Z,84.00
2017-12-23T14:06:44.326Z,84.10
2017-12-23T14:09:11.881Z,84.30
2017-12-23T14:11:40.262Z,85.00
2017-12-23T14:14:08.647Z,84.20
2017-12-23T14:16:36.885Z,85.00
2017-12-23T14:19:04.340Z,84.40
2017-12-23T14:21:31.801Z,84.60
2017-12-23T14:23:59.347Z,84.50
2017-12-23T14:26:27.658Z,84.50
2017-12-23T14:28:56.153Z,84.10
2017-12-23T14:31:24.368Z,85.10
2017-12-23T14:33:51.854Z,84.40
2017-12-23T14:36:19.397Z,84.50
2017-12-23T14:38:46.895Z,84.70
2017-12-23T14:41:15.094Z,85.40
2017-12-23T14:43:42.697Z,84.80
2017-12-23T14:46:10.248Z,84.60
2017-12-23T14:48:38.029Z,84.70
2017-12-23T14:51:05.484Z,84.70
2017-12-23T14:53:33.891Z,84.30
2017-12-23T14:56:02.197Z,84.60
2017-12-23T14:58:29.680Z,84.00
2017-12-23T15:00:57.152Z,84.10
2017-12-23T15:03:24.666Z,84.20
2017-12-23T15:05:53.048Z,84.40
2017-12-23T15:08:20.512Z,84.50
2017-12-23T15:10:48.211Z,84.50
2017-12-23T15:13:15.720Z,84.20
2017-12-23T15:15:43.599Z,84.10
2017-12-23T15:18:11.147Z,84.10
2017-12-23T15:20:38.579Z,84.40
2017-12-23T15:23:06.059Z,84.30
2017-12-23T15:25:34.130Z,84.50
2017-12-23T15:28:01.996Z,84.60
2017-12-23T15:30:29.770Z,84.80
2017-12-23T15:32:57.256Z,84.40
2017-12-23T15:35:24.753Z,84.70
2017-12-23T15:37:52.222Z,84.80
2017-12-23T15:40:19.845Z,85.00
2017-12-23T15:42:47.330Z,84.80
2017-12-23T15:45:14.831Z,84.80
2017-12-23T15:47:42.781Z,84.80
2017-12-23T15:50:10.244Z,84.80
2017-12-23T15:52:37.789Z,84.90
2017-12-23T15:55:05.246Z,84.70
2017-12-23T15:57:32.834Z,84.70
2017-12-23T16:00:00.284Z,84.50
2017-12-23T16:02:28.173Z,84.60
2017-12-23T16:04:56.241Z,84.70
2017-12-23T16:07:23.843Z,84.50
2017-12-23T16:09:51.296Z,84.70
2017-12-23T16:12:18.802Z,84.70
2017-12-23T16:14:46.578Z,84.90
2017-12-23T16:17:14.021Z,84.80
2017-12-23T16:19:41.537Z,84.50
2017-12-23T16:22:09.016Z,84.10
2017-12-23T16:24:36.951Z,84.00
2017-12-23T16:27:05.253Z,84.60
2017-12-23T16:29:33.164Z,84.10
2017-12-23T16:32:00.619Z,85.00
2017-12-23T16:34:28.250Z,84.00
2017-12-23T16:36:55.760Z,83.90
2017-12-23T16:39:23.228Z,84.20
2017-12-23T16:41:50.672Z,84.60
2017-12-23T16:44:19.291Z,85.10
2017-12-23T16:46:46.822Z,84.30
2017-12-23T16:49:14.774Z,84.50
2017-12-23T16:51:42.997Z,84.50
2017-12-23T16:54:10.559Z,84.40
2017-12-23T16:56:38.872Z,84.70
2017-12-23T16:59:06.970Z,84.50
2017-12-23T17:01:34.438Z,84.60
2017-12-23T17:04:02.281Z,84.60
2017-12-23T17:06:30.507Z,85.80
2017-12-23T17:08:57.951Z,84.80
2017-12-23T17:11:25.436Z,84.80
2017-12-23T17:13:53.614Z,85.20
2017-12-23T17:16:22.151Z,85.20
2017-12-23T17:18:49.615Z,85.20
2017-12-23T17:21:17.223Z,85.00
2017-12-23T17:23:44.735Z,85.00
2017-12-23T17:26:12.508Z,85.40
2017-12-23T17:28:52.573Z,85.50
2017-12-23T17:31:20.518Z,85.60
2017-12-23T17:33:48.192Z,85.70
2017-12-23T17:36:15.733Z,85.80
2017-12-23T17:38:43.237Z,85.50
2017-12-23T17:41:11.088Z,85.40
2017-12-23T17:43:38.779Z,85.60
2017-12-23T17:46:06.257Z,85.30
2017-12-23T17:48:34.870Z,86.10
2017-12-23T17:51:04.484Z,85.50
2017-12-23T17:53:31.979Z,85.40
2017-12-23T17:56:01.639Z,85.70
2017-12-23T17:58:29.074Z,85.00
2017-12-23T18:00:56.857Z,85.20
2017-12-23T18:03:24.315Z,85.10
2017-12-23T18:05:51.789Z,85.40
2017-12-23T18:08:19.259Z,85.60
2017-12-23T18:10:46.889Z,85.60
2017-12-23T18:13:14.453Z,85.80
2017-12-23T18:15:42.488Z,85.70
2017-12-23T18:18:10.793Z,86.60
2017-12-23T18:20:38.394Z,86.00
2017-12-23T18:23:06.142Z,85.70
2017-12-23T18:25:34.308Z,86.00
2017-12-23T18:28:02.450Z,85.90
2017-12-23T18:30:30.415Z,86.20
2017-12-23T18:32:57.944Z,86.30
2017-12-23T18:35:26.184Z,86.80
2017-12-23T18:37:53.686Z,86.10
2017-12-23T18:40:22.190Z,87.20
2017-12-23T18:42:49.675Z,86.50
2017-12-23T18:45:17.326Z,87.00
2017-12-23T18:47:44.975Z,86.90
2017-12-23T18:50:12.831Z,87.00
2017-12-23T18:52:40.300Z,86.70
2017-12-23T18:55:08.406Z,86.70
2017-12-23T18:57:35.878Z,86.90
2017-12-23T19:00:03.529Z,87.00
2017-12-23T19:02:31.007Z,87.10
2017-12-23T19:05:00.198Z,87.90
2017-12-23T19:07:29.441Z,87.90
2017-12-23T19:09:57.050Z,87.30
2017-12-23T19:12:25.304Z,88.00
2017-12-23T19:14:53.451Z,87.30
2017-12-23T19:17:21.499Z,87.40
2017-12-23T19:19:48.949Z,87.40
2017-12-23T19:22:17.235Z,88.10
2017-12-23T19:24:45.230Z,87.40
2017-12-23T19:27:13.084Z,87.20
2017-12-23T19:29:41.376Z,87.20
2017-12-23T19:32:08.853Z,87.30
2017-12-23T19:34:36.479Z,87.60
2017-12-23T19:37:04.139Z,87.30
2017-12-23T19:39:31.606Z,87.20
2017-12-23T19:41:59.257Z,87.20
2017-12-23T19:44:28.228Z,87.10
2017-12-23T19:46:56.426Z,87.20
2017-12-23T19:49:24.394Z,87.40
2017-12-23T19:51:52.056Z,87.10
2017-12-23T19:54:20.544Z,87.30
2017-12-23T19:56:48.403Z,87.30
2017-12-23T19:59:16.007Z,87.30
2017-12-23T20:01:44.031Z,87.00
2017-12-23T20:04:11.714Z,87.20
2017-12-23T20:06:39.867Z,87.20
2017-12-23T20:09:07.429Z,87.20
2017-12-23T20:11:34.999Z,87.30
2017-12-23T20:14:03.260Z,87.30
2017-12-23T20:16:30.758Z,87.40
2017-12-23T20:18:59.848Z,88.20
2017-12-23T20:21:27.353Z,87.60
2017-12-23T20:23:54.865Z,87.50
2017-12-23T20:26:22.738Z,87.80
2017-12-23T20:28:50.901Z,87.90
2017-12-23T20:31:18.540Z,87.90
2017-12-23T20:33:46.110Z,87.60
2017-12-23T20:36:13.589Z,87.50
2017-12-23T20:38:41.507Z,87.60
2017-12-23T20:41:09.531Z,87.20
2017-12-23T20:43:38.061Z,88.30
2017-12-23T20:46:06.040Z,86.90
2017-12-23T20:48:34.888Z,86.70
2017-12-23T20:51:03.166Z,86.80
2017-12-23T20:53:31.980Z,86.80
2017-12-23T20:55:59.511Z,86.20
2017-12-23T20:58:27.922Z,86.40
2017-12-23T21:00:56.091Z,85.80
2017-12-23T21:03:23.649Z,85.80
2017-12-23T21:05:51.451Z,86.00
2017-12-23T21:08:19.285Z,85.90
2017-12-23T21:10:46.856Z,85.90
2017-12-23T21:13:14.504Z,85.80
2017-12-23T21:15:42.494Z,85.70
2017-12-23T21:18:10.025Z,85.80
2017-12-23T21:20:37.509Z,85.80
2017-12-23T21:23:05.145Z,86.10
2017-12-23T21:25:33.114Z,85.60
2017-12-23T21:28:00.857Z,85.00
2017-12-23T21:30:28.683Z,84.80
2017-12-23T21:32:56.402Z,85.20
2017-12-23T21:35:24.010Z,85.10
2017-12-23T21:37:52.647Z,85.40
2017-12-23T21:40:20.166Z,84.70
2017-12-23T21:42:50.352Z,85.10
2017-12-23T21:45:18.087Z,84.60
2017-12-23T21:47:46.362Z,84.80
2017-12-23T21:50:14.000Z,85.00
2017-12-23T21:52:41.583Z,84.90
2017-12-23T21:55:09.297Z,84.90
2017-12-23T21:57:36.819Z,84.70
2017-12-23T22:00:04.282Z,85.00
2017-12-23T22:02:31.825Z,85.00
2017-12-23T22:04:59.547Z,85.00
2017-12-23T22:07:27.772Z,85.40
2017-12-23T22:09:55.242Z,84.80
2017-12-23T22:12:22.794Z,84.50
2017-12-23T22:14:50.689Z,84.50
2017-12-23T22:17:18.333Z,84.60
2017-12-23T22:19:45.854Z,84.40
2017-12-23T22:22:13.369Z,84.30
2017-12-23T22:24:42.066Z,84.00
2017-12-23T22:27:10.832Z,84.90
2017-12-23T22:29:38.801Z,84.40
2017-12-23T22:32:06.277Z,84.50
2017-12-23T22:34:34.488Z,85.20
2017-12-23T22:37:02.097Z,84.30
2017-12-23T22:39:29.556Z,84.20
2017-12-23T22:41:58.606Z,84.80
2017-12-23T22:44:26.876Z,84.70
2017-12-23T22:46:54.667Z,84.00
2017-12-23T22:49:22.435Z,84.10
2017-12-23T22:51:49.878Z,83.90
2017-12-23T22:54:17.455Z,84.10
2017-12-23T22:56:44.973Z,83.90
2017-12-23T22:59:12.475Z,83.70
2017-12-23T23:01:39.939Z,84.00
2017-12-23T23:04:07.747Z,83.40
2017-12-23T23:06:35.464Z,83.70
2017-12-23T23:09:02.913Z,83.80
2017-12-23T23:11:30.429Z,83.80
2017-12-23T23:13:59.625Z,82.60
2017-12-23T23:16:27.112Z,83.50
2017-12-23T23:18:55.083Z,83.80
2017-12-23T23:21:22.552Z,83.90
2017-12-23T23:23:50.162Z,83.90
2017-12-23T23:26:17.974Z,83.80
2017-12-23T23:28:47.671Z,84.20
2017-12-23T23:31:15.404Z,83.50
2017-12-23T23:33:42.916Z,83.40
2017-12-23T23:36:11.233Z,83.40
2017-12-23T23:38:38.710Z,83.00
2017-12-23T23:41:06.141Z,83.10
2017-12-23T23:43:33.725Z,83.30
2017-12-23T23:46:01.217Z,83.10
2017-12-23T23:48:29.062Z,83.30
2017-12-23T23:50:56.688Z,83.20
2017-12-23T23:53:24.190Z,83.20
2017-12-23T23:55:51.841Z,83.30
2017-12-23T23:58:19.276Z,83.00
